createdAt,value
2018-02-12T00:00:01.882Z,3.40
2018-02-12T00:02:29.953Z,4.15
2018-02-12T00:04:58.329Z,4.20
2018-02-12T00:07:26.704Z,4.20
2018-02-12T00:09:55.028Z,4.50
2018-02-12T00:12:23.352Z,4.45
2018-02-12T00:14:51.669Z,5.20
2018-02-12T00:17:19.980Z,5.05
2018-02-12T00:19:48.321Z,5.93
2018-02-12T00:22:16.665Z,5.12
2018-02-12T00:24:44.993Z,5.05
2018-02-12T00:27:13.313Z,5.05
2018-02-12T00:29:41.651Z,6.28
2018-02-12T00:32:09.957Z,6.50
2018-02-12T00:34:38.268Z,7.12
2018-02-12T00:37:06.596Z,9.25
2018-02-12T00:39:34.910Z,8.88
2018-02-12T00:42:03.237Z,8.82
2018-02-12T00:44:31.644Z,9.30
2018-02-12T00:47:00.026Z,10.23
2018-02-12T00:49:28.345Z,10.35
2018-02-12T00:51:56.781Z,10.27
2018-02-12T00:54:25.161Z,9.32
2018-02-12T00:56:53.497Z,10.10
2018-02-12T00:59:21.909Z,10.68
2018-02-12T01:01:50.289Z,9.48
2018-02-12T01:04:18.597Z,8.43
2018-02-12T01:06:46.953Z,8.25
2018-02-12T01:09:15.322Z,7.93
2018-02-12T01:11:43.693Z,7.87
2018-02-12T01:14:12.029Z,8.55
2018-02-12T01:16:40.332Z,7.72
2018-02-12T01:19:08.671Z,6.70
2018-02-12T01:21:36.996Z,7.37
2018-02-12T01:24:05.377Z,7.00
2018-02-12T01:26:33.685Z,6.55
2018-02-12T01:29:02.022Z,7.80
2018-02-12T01:31:30.404Z,7.60
2018-02-12T01:33:58.737Z,7.30
2018-02-12T01:36:27.053Z,9.30
2018-02-12T01:38:55.646Z,8.30
2018-02-12T01:41:23.953Z,6.65
2018-02-12T01:43:52.301Z,7.30
2018-02-12T01:46:20.673Z,8.05
2018-02-12T01:48:49.054Z,8.02
2018-02-12T01:51:17.369Z,8.20
2018-02-12T01:53:45.805Z,8.40
2018-02-12T01:56:14.125Z,8.98
2018-02-12T01:58:42.436Z,9.25
2018-02-12T02:01:10.769Z,9.95
2018-02-12T02:03:39.086Z,10.07
2018-02-12T02:06:07.434Z,10.90
2018-02-12T02:08:35.763Z,12.65
2018-02-12T02:11:04.092Z,9.70
2018-02-12T02:13:32.508Z,10.75
2018-02-12T02:16:00.853Z,10.10
2018-02-12T02:18:29.212Z,10.45
2018-02-12T02:20:57.556Z,11.48
2018-02-12T02:23:25.874Z,11.25
2018-02-12T02:25:54.204Z,11.45
2018-02-12T02:28:22.577Z,11.25
2018-02-12T02:30:50.918Z,12.82
2018-02-12T02:33:19.333Z,12.80
2018-02-12T02:35:49.498Z,11.75
2018-02-12T02:38:17.825Z,13.20
2018-02-12T02:40:46.206Z,12.65
2018-02-12T02:43:14.577Z,12.45
2018-02-12T02:45:42.949Z,13.80
2018-02-12T02:48:11.289Z,13.05
2018-02-12T02:50:39.609Z,14.00
2018-02-12T02:53:07.954Z,11.12
2018-02-12T02:55:36.268Z,11.02
2018-02-12T02:58:04.601Z,10.80
2018-02-12T03:00:32.959Z,12.65
2018-02-12T03:03:01.393Z,13.48
2018-02-12T03:05:29.708Z,12.05
2018-02-12T03:07:58.049Z,12.05
2018-02-12T03:10:26.416Z,13.20
2018-02-12T03:12:54.810Z,12.18
2018-02-12T03:15:23.128Z,12.95
2018-02-12T03:17:51.457Z,13.70
2018-02-12T03:20:19.777Z,14.70
2018-02-12T03:22:48.213Z,13.77
2018-02-12T03:25:16.585Z,14.18
2018-02-12T03:27:44.961Z,13.82
2018-02-12T03:30:13.285Z,14.87
2018-02-12T03:32:41.717Z,15.70
2018-02-12T03:35:10.105Z,16.42
2018-02-12T03:37:38.473Z,15.77
2018-02-12T03:40:06.792Z,16.27
2018-02-12T03:42:35.242Z,16.62
2018-02-12T03:45:03.561Z,15.95
2018-02-12T03:47:31.980Z,15.45
2018-02-12T03:50:00.356Z,15.35
2018-02-12T03:52:28.695Z,14.75
2018-02-12T03:54:57.113Z,15.15
2018-02-12T03:57:25.489Z,17.52
2018-02-12T03:59:53.861Z,16.45
2018-02-12T04:02:22.245Z,15.25
2018-02-12T04:04:50.624Z,15.18
2018-02-12T04:07:18.961Z,16.30
2018-02-12T04:09:47.373Z,14.45
2018-02-12T04:12:15.754Z,14.52
2018-02-12T04:14:44.065Z,15.52
2018-02-12T04:17:12.504Z,15.48
2018-02-12T04:19:40.881Z,15.57
2018-02-12T04:22:09.221Z,16.00
2018-02-12T04:24:37.565Z,15.30
2018-02-12T04:27:05.905Z,15.63
2018-02-12T04:29:34.225Z,16.90
2018-02-12T04:32:02.666Z,14.95
2018-02-12T04:34:30.985Z,15.25
2018-02-12T04:36:59.416Z,15.32
2018-02-12T04:39:27.737Z,14.90
2018-02-12T04:41:56.178Z,15.57
2018-02-12T04:44:24.502Z,14.85
2018-02-12T04:46:52.809Z,15.80
2018-02-12T04:49:21.204Z,16.30
2018-02-12T04:51:49.524Z,15.00
2018-02-12T04:54:17.861Z,14.60
2018-02-12T04:56:46.181Z,15.30
2018-02-12T04:59:14.521Z,14.98
2018-02-12T05:01:42.842Z,15.40
2018-02-12T05:04:11.182Z,16.10
2018-02-12T05:06:39.506Z,14.93
2018-02-12T05:09:07.841Z,14.05
2018-02-12T05:11:36.158Z,15.45
2018-02-12T05:14:04.499Z,15.80
2018-02-12T05:16:32.818Z,14.80
2018-02-12T05:19:01.153Z,14.32
2018-02-12T05:21:29.469Z,15.32
2018-02-12T05:23:58.681Z,14.23
2018-02-12T05:26:26.998Z,14.90
2018-02-12T05:28:55.340Z,15.48
2018-02-12T05:31:23.657Z,15.25
2018-02-12T05:33:51.998Z,14.65
2018-02-12T05:36:20.318Z,14.40
2018-02-12T05:38:48.657Z,14.82
2018-02-12T05:41:16.979Z,14.60
2018-02-12T05:43:45.324Z,15.07
2018-02-12T05:46:14.561Z,14.93
2018-02-12T05:48:42.908Z,15.37
2018-02-12T05:51:11.222Z,15.30
2018-02-12T05:53:39.686Z,16.52
2018-02-12T05:56:08.023Z,15.70
2018-02-12T05:58:36.853Z,16.10
2018-02-12T06:01:05.170Z,15.93
2018-02-12T06:03:33.513Z,15.48
2018-02-12T06:06:01.837Z,15.67
2018-02-12T06:08:30.181Z,15.43
2018-02-12T06:10:58.521Z,13.80
2018-02-12T06:13:27.181Z,15.20
2018-02-12T06:15:56.428Z,15.30
2018-02-12T06:18:24.782Z,14.60
2018-02-12T06:20:53.109Z,13.27
2018-02-12T06:23:21.453Z,14.67
2018-02-12T06:25:49.781Z,14.52
2018-02-12T06:28:18.129Z,13.93
2018-02-12T06:30:46.453Z,13.05
2018-02-12T06:33:14.806Z,12.73
2018-02-12T06:35:43.134Z,12.03
2018-02-12T06:38:11.477Z,13.30
2018-02-12T06:40:39.806Z,12.60
2018-02-12T06:43:08.153Z,14.17
2018-02-12T06:45:36.490Z,12.48
2018-02-12T06:48:04.853Z,12.73
2018-02-12T06:50:33.206Z,12.13
2018-02-12T06:53:01.845Z,13.73
2018-02-12T06:55:30.193Z,13.50
2018-02-12T06:57:58.526Z,14.43
2018-02-12T07:00:26.881Z,14.80
2018-02-12T07:02:55.209Z,14.90
2018-02-12T07:05:23.558Z,15.60
2018-02-12T07:07:51.889Z,15.50
2018-02-12T07:10:20.237Z,14.47
2018-02-12T07:12:49.482Z,14.23
2018-02-12T07:15:17.833Z,16.70
2018-02-12T07:17:46.165Z,15.80
2018-02-12T07:20:14.517Z,14.77
2018-02-12T07:22:42.849Z,14.25
2018-02-12T07:25:11.364Z,15.40
2018-02-12T07:27:39.759Z,14.18
2018-02-12T07:30:08.089Z,15.50
2018-02-12T07:32:37.213Z,14.75
2018-02-12T07:35:05.565Z,15.20
2018-02-12T07:37:33.894Z,16.27
2018-02-12T07:40:02.257Z,15.90
2018-02-12T07:42:30.662Z,14.60
2018-02-12T07:44:59.004Z,16.05
2018-02-12T07:47:27.330Z,14.60
2018-02-12T07:49:55.688Z,14.30
2018-02-12T07:52:24.010Z,16.03
2018-02-12T07:54:52.385Z,15.63
2018-02-12T07:57:20.903Z,15.07
2018-02-12T07:59:49.229Z,15.30
2018-02-12T08:02:17.562Z,12.80
2018-02-12T08:04:45.909Z,12.13
2018-02-12T08:07:14.237Z,12.50
2018-02-12T08:09:42.589Z,12.82
2018-02-12T08:12:11.382Z,14.23
2018-02-12T08:14:39.721Z,15.53
2018-02-12T08:17:08.054Z,14.97
2018-02-12T08:19:36.400Z,11.70
2018-02-12T08:22:04.733Z,12.37
2018-02-12T08:24:33.541Z,11.82
2018-02-12T08:27:02.553Z,12.73
2018-02-12T08:29:30.884Z,11.25
2018-02-12T08:31:59.214Z,12.30
2018-02-12T08:34:27.563Z,11.47
2018-02-12T08:36:55.885Z,12.43
2018-02-12T08:39:24.239Z,11.27
2018-02-12T08:41:52.561Z,10.30
2018-02-12T08:44:20.909Z,10.00
2018-02-12T08:46:49.233Z,9.00
2018-02-12T08:49:17.579Z,8.80
2018-02-12T08:51:45.901Z,9.37
2018-02-12T08:54:14.227Z,10.40
2018-02-12T08:56:42.573Z,8.40
2018-02-12T08:59:10.897Z,8.67
2018-02-12T09:01:39.293Z,10.07
2018-02-12T09:04:10.346Z,8.47
2018-02-12T09:06:38.814Z,7.23
2018-02-12T09:09:07.233Z,7.57
2018-02-12T09:11:35.576Z,7.10
2018-02-12T09:14:03.901Z,7.18
2018-02-12T09:16:32.250Z,5.97
2018-02-12T09:19:00.569Z,6.43
2018-02-12T09:21:28.909Z,6.97
2018-02-12T09:23:57.229Z,7.07
2018-02-12T09:26:25.573Z,7.65
2018-02-12T09:28:53.900Z,8.20
2018-02-12T09:31:22.237Z,8.73
2018-02-12T09:33:50.556Z,9.35
2018-02-12T09:36:19.805Z,9.30
2018-02-12T09:38:48.125Z,9.52
2018-02-12T09:41:16.486Z,10.37
2018-02-12T09:43:44.818Z,10.63
2018-02-12T09:46:13.161Z,9.60
2018-02-12T09:48:41.480Z,9.60
2018-02-12T09:51:10.869Z,9.30
2018-02-12T09:53:40.022Z,8.67
2018-02-12T09:56:08.421Z,8.83
2018-02-12T09:58:36.740Z,8.73
2018-02-12T10:01:05.090Z,9.40
2018-02-12T10:03:33.413Z,8.27
2018-02-12T10:06:01.758Z,7.33
2018-02-12T10:08:30.077Z,7.40
2018-02-12T10:10:58.907Z,6.60
2018-02-12T10:13:27.233Z,6.12
2018-02-12T10:15:55.573Z,5.70
2018-02-12T10:18:23.893Z,5.77
2018-02-12T10:20:52.953Z,6.43
2018-02-12T10:23:21.273Z,5.87
2018-02-12T10:25:49.622Z,5.03
2018-02-12T10:28:17.937Z,4.68
2018-02-12T10:30:46.278Z,4.55
2018-02-12T10:33:14.600Z,4.63
2018-02-12T10:35:43.042Z,3.53
2018-02-12T10:38:11.358Z,3.12
2018-02-12T10:40:39.741Z,3.87
2018-02-12T10:43:08.057Z,2.90
2018-02-12T10:45:36.393Z,2.03
2018-02-12T10:48:04.791Z,3.00
2018-02-12T10:50:33.201Z,1.80
2018-02-12T10:53:01.516Z,1.83
2018-02-12T10:55:30.021Z,2.00
2018-02-12T10:57:58.321Z,2.20
2018-02-12T11:00:26.836Z,2.07
2018-02-12T11:02:55.173Z,1.80
2018-02-12T11:05:24.121Z,2.67
2018-02-12T11:07:52.438Z,1.65
2018-02-12T11:10:20.808Z,2.30
2018-02-12T11:12:51.702Z,2.40
2018-02-12T11:15:21.828Z,2.35
2018-02-12T11:17:50.444Z,1.50
2018-02-12T11:20:18.833Z,2.40
2018-02-12T11:22:52.902Z,2.33
2018-02-12T11:25:22.453Z,2.20
2018-02-12T11:27:50.794Z,2.67
2018-02-12T11:30:19.131Z,1.92
2018-02-12T11:32:47.753Z,3.10
2018-02-12T11:35:16.684Z,3.10
2018-02-12T11:37:45.137Z,4.30
2018-02-12T11:40:13.530Z,5.37
2018-02-12T11:42:41.917Z,5.75
2018-02-12T11:45:20.553Z,5.50
2018-02-12T11:47:49.110Z,5.10
2018-02-12T11:50:17.483Z,6.43
2018-02-12T11:52:45.961Z,5.63
2018-02-12T11:55:14.342Z,7.70
2018-02-12T11:57:42.838Z,7.00
2018-02-12T12:00:11.146Z,7.40
2018-02-12T12:02:39.631Z,6.03
2018-02-12T12:05:08.007Z,7.23
2018-02-12T12:07:36.590Z,6.30
2018-02-12T12:10:05.022Z,6.50
2018-02-12T12:12:33.877Z,6.10
2018-02-12T12:15:02.231Z,4.70
2018-02-12T12:17:30.753Z,5.40
2018-02-12T12:19:59.237Z,5.40
2018-02-12T12:22:27.565Z,3.83
2018-02-12T12:24:55.885Z,4.15
2018-02-12T12:27:24.353Z,4.50
2018-02-12T12:29:52.769Z,4.03
2018-02-12T12:32:21.345Z,4.53
2018-02-12T12:34:49.686Z,4.60
2018-02-12T12:37:18.137Z,4.55
2018-02-12T12:39:46.562Z,3.97
2018-02-12T12:42:14.897Z,3.80
2018-02-12T12:44:43.453Z,3.50
2018-02-12T12:47:11.909Z,4.30
2018-02-12T12:49:40.235Z,4.80
2018-02-12T12:52:08.596Z,4.50
2018-02-12T12:54:36.910Z,5.07
2018-02-12T12:57:05.309Z,3.83
2018-02-12T12:59:33.738Z,4.13
2018-02-12T13:02:02.166Z,4.50
2018-02-12T13:04:31.153Z,3.97
2018-02-12T13:06:59.525Z,3.60
2018-02-12T13:09:27.909Z,3.60
2018-02-12T13:11:56.287Z,4.70
2018-02-12T13:14:24.610Z,4.73
2018-02-12T13:16:52.994Z,4.10
2018-02-12T13:19:21.313Z,3.12
2018-02-12T13:21:49.658Z,3.80
2018-02-12T13:24:18.020Z,3.90
2018-02-12T13:26:46.341Z,3.20
2018-02-12T13:29:14.726Z,3.13
2018-02-12T13:31:43.046Z,4.53
2018-02-12T13:34:11.384Z,4.77
2018-02-12T13:36:39.709Z,3.47
2018-02-12T13:39:08.059Z,2.95
2018-02-12T13:41:36.401Z,3.63
2018-02-12T13:44:04.783Z,2.13
2018-02-12T13:46:33.097Z,2.80
2018-02-12T13:49:01.486Z,3.00
2018-02-12T13:51:29.801Z,3.42
2018-02-12T13:53:58.225Z,1.90
2018-02-12T13:56:27.484Z,2.53
2018-02-12T13:58:55.862Z,3.17
2018-02-12T14:01:24.241Z,2.83
2018-02-12T14:03:52.586Z,3.00
2018-02-12T14:06:20.909Z,2.90
2018-02-12T14:08:49.253Z,4.47
2018-02-12T14:11:17.577Z,2.50
2018-02-12T14:13:46.817Z,4.07
2018-02-12T14:16:15.156Z,3.20
2018-02-12T14:18:43.499Z,3.10
2018-02-12T14:21:11.821Z,2.87
2018-02-12T14:23:40.253Z,3.20
2018-02-12T14:26:09.501Z,2.62
2018-02-12T14:28:37.921Z,3.35
2018-02-12T14:31:06.301Z,2.70
2018-02-12T14:33:34.678Z,3.07
2018-02-12T14:36:03.977Z,3.05
2018-02-12T14:38:32.309Z,2.72
2018-02-12T14:41:00.729Z,2.90
2018-02-12T14:43:29.153Z,2.37
2018-02-12T14:45:58.513Z,3.10
2018-02-12T14:48:26.852Z,3.20
2018-02-12T14:50:55.173Z,2.40
2018-02-12T14:53:23.521Z,3.03
2018-02-12T14:55:51.913Z,2.30
2018-02-12T14:58:20.255Z,2.35
2018-02-12T15:00:49.085Z,2.50
2018-02-12T15:03:17.458Z,1.60
2018-02-12T15:05:45.832Z,1.30
2018-02-12T15:08:14.170Z,1.58
2018-02-12T15:10:42.584Z,1.33
2018-02-12T15:13:10.930Z,2.33
2018-02-12T15:15:39.259Z,2.37
2018-02-12T15:18:07.588Z,1.73
2018-02-12T15:20:36.846Z,1.55
2018-02-12T15:23:05.293Z,2.07
2018-02-12T15:25:33.613Z,2.40
2018-02-12T15:28:01.957Z,2.67
2018-02-12T15:30:30.280Z,3.20
2018-02-12T15:32:58.698Z,3.12
2018-02-12T15:35:27.235Z,2.57
2018-02-12T15:37:55.630Z,2.00
2018-02-12T15:40:24.554Z,2.00
2018-02-12T15:42:52.869Z,2.17
2018-02-12T15:45:21.241Z,2.57
2018-02-12T15:47:49.566Z,4.55
2018-02-12T15:50:17.907Z,1.87
2018-02-12T15:52:46.241Z,1.10
2018-02-12T15:55:14.565Z,1.20
2018-02-12T15:57:42.886Z,0.90
2018-02-12T16:00:11.226Z,1.83
2018-02-12T16:02:39.550Z,1.50
2018-02-12T16:05:07.933Z,0.80
2018-02-12T16:07:36.249Z,0.93
2018-02-12T16:10:04.589Z,0.80
2018-02-12T16:12:32.910Z,1.40
2018-02-12T16:15:01.246Z,1.63
2018-02-12T16:17:30.029Z,1.45
2018-02-12T16:19:58.395Z,1.13
2018-02-12T16:22:26.757Z,1.80
2018-02-12T16:24:55.093Z,1.60
2018-02-12T16:27:23.414Z,1.83
2018-02-12T16:29:51.789Z,1.50
2018-02-12T16:32:20.166Z,2.20
2018-02-12T16:34:48.541Z,1.83
2018-02-12T16:37:16.918Z,2.03
2018-02-12T16:39:45.256Z,1.30
2018-02-12T16:42:13.673Z,1.57
2018-02-12T16:44:42.049Z,1.30
2018-02-12T16:47:10.432Z,1.50
2018-02-12T16:49:38.805Z,1.70
2018-02-12T16:52:07.117Z,1.50
2018-02-12T16:54:35.563Z,1.40
2018-02-12T16:57:04.386Z,1.60
2018-02-12T16:59:32.730Z,2.07
2018-02-12T17:02:01.120Z,1.60
2018-02-12T17:04:32.009Z,1.40
2018-02-12T17:07:01.120Z,1.60
2018-02-12T17:09:31.018Z,2.03
2018-02-12T17:11:59.334Z,2.30
2018-02-12T17:14:27.668Z,2.10
2018-02-12T17:16:55.985Z,1.62
2018-02-12T17:19:24.321Z,2.30
2018-02-12T17:21:52.643Z,2.03
2018-02-12T17:24:20.997Z,1.90
2018-02-12T17:26:49.293Z,2.40
2018-02-12T17:29:17.629Z,2.00
2018-02-12T17:31:45.945Z,2.60
2018-02-12T17:34:14.286Z,2.20
2018-02-12T17:36:42.603Z,2.30
2018-02-12T17:39:11.501Z,3.05
2018-02-12T17:41:39.829Z,3.43
2018-02-12T17:44:08.149Z,3.17
2018-02-12T17:46:36.483Z,2.87
2018-02-12T17:49:04.880Z,2.63
2018-02-12T17:51:33.254Z,2.27
2018-02-12T17:54:01.570Z,3.15
2018-02-12T17:56:29.925Z,2.67
2018-02-12T17:58:59.145Z,3.95
2018-02-12T18:01:27.482Z,4.87
2018-02-12T18:03:55.806Z,4.33
2018-02-12T18:06:24.146Z,5.05
2018-02-12T18:08:52.458Z,4.80
2018-02-12T18:11:20.801Z,4.95
2018-02-12T18:13:49.122Z,5.70
2018-02-12T18:16:18.437Z,4.73
2018-02-12T18:18:46.750Z,4.60
2018-02-12T18:21:15.157Z,4.33
2018-02-12T18:23:43.498Z,5.17
2018-02-12T18:26:11.860Z,5.70
2018-02-12T18:28:40.250Z,5.33
2018-02-12T18:31:08.588Z,5.20
2018-02-12T18:33:37.001Z,5.05
2018-02-12T18:36:05.350Z,4.83
2018-02-12T18:38:34.450Z,4.85
2018-02-12T18:41:02.851Z,5.43
2018-02-12T18:43:31.225Z,4.27
2018-02-12T18:45:59.569Z,4.20
2018-02-12T18:48:27.894Z,4.50
2018-02-12T18:50:56.250Z,4.68
2018-02-12T18:53:24.721Z,5.00
2018-02-12T18:55:53.118Z,4.43
2018-02-12T18:58:21.451Z,5.23
2018-02-12T19:00:49.797Z,4.40
2018-02-12T19:03:18.117Z,4.93
2018-02-12T19:05:47.238Z,4.47
2018-02-12T19:08:15.612Z,4.50
2018-02-12T19:10:43.995Z,5.90
2018-02-12T19:13:12.321Z,5.20
2018-02-12T19:15:40.691Z,5.67
2018-02-12T19:18:09.009Z,4.93
2018-02-12T19:20:37.401Z,5.43
2018-02-12T19:23:05.773Z,6.43
2018-02-12T19:25:34.134Z,5.67
2018-02-12T19:28:02.533Z,5.40
2018-02-12T19:30:30.886Z,5.80
2018-02-12T19:32:59.290Z,5.17
2018-02-12T19:35:27.629Z,5.43
2018-02-12T19:37:55.949Z,5.83
2018-02-12T19:40:24.447Z,4.53
2018-02-12T19:42:54.065Z,5.55
2018-02-12T19:45:22.458Z,5.10
2018-02-12T19:47:50.886Z,5.20
2018-02-12T19:50:19.201Z,6.20
2018-02-12T19:52:47.552Z,6.07
2018-02-12T19:55:15.861Z,5.20
2018-02-12T19:57:44.498Z,5.90
2018-02-12T20:00:12.821Z,6.07
2018-02-12T20:02:41.246Z,6.60
2018-02-12T20:05:09.568Z,5.80
2018-02-12T20:07:38.000Z,5.73
2018-02-12T20:10:06.326Z,6.35
2018-02-12T20:12:34.670Z,6.87
2018-02-12T20:15:03.029Z,6.60
2018-02-12T20:17:31.406Z,6.53
2018-02-12T20:19:59.785Z,6.55
2018-02-12T20:22:28.135Z,6.80
2018-02-12T20:24:56.461Z,7.30
2018-02-12T20:27:24.826Z,5.63
2018-02-12T20:29:53.246Z,6.40
2018-02-12T20:32:21.565Z,6.80
2018-02-12T20:34:49.888Z,5.97
2018-02-12T20:37:22.089Z,7.30
2018-02-12T20:39:50.524Z,6.47
2018-02-12T20:42:18.874Z,6.03
2018-02-12T20:44:47.193Z,5.80
2018-02-12T20:47:15.630Z,6.13
2018-02-12T20:49:43.997Z,6.27
2018-02-12T20:52:12.342Z,6.40
2018-02-12T20:54:40.753Z,5.53
2018-02-12T20:57:09.097Z,6.55
2018-02-12T20:59:37.425Z,7.17
2018-02-12T21:02:05.772Z,6.60
2018-02-12T21:04:34.160Z,7.17
2018-02-12T21:07:02.509Z,6.95
2018-02-12T21:09:30.824Z,7.00
2018-02-12T21:11:59.162Z,8.03
2018-02-12T21:14:27.485Z,7.13
2018-02-12T21:16:55.828Z,6.78
2018-02-12T21:19:24.213Z,8.10
2018-02-12T21:21:52.593Z,6.70
2018-02-12T21:24:20.918Z,6.22
2018-02-12T21:26:49.261Z,7.50
2018-02-12T21:29:17.612Z,7.10
2018-02-12T21:31:45.962Z,10.30
2018-02-12T21:34:14.637Z,10.33
2018-02-12T21:36:43.034Z,10.07
2018-02-12T21:39:11.364Z,9.52
2018-02-12T21:41:39.713Z,9.27
2018-02-12T21:44:08.034Z,8.50
2018-02-12T21:46:36.465Z,10.00
2018-02-12T21:49:04.842Z,9.53
2018-02-12T21:51:33.230Z,11.55
2018-02-12T21:54:01.576Z,11.55
2018-02-12T21:56:29.977Z,11.67
2018-02-12T21:58:58.358Z,9.77
2018-02-12T22:01:26.682Z,11.90
2018-02-12T22:03:55.113Z,10.80
2018-02-12T22:06:23.485Z,11.10
2018-02-12T22:08:51.838Z,13.27
2018-02-12T22:11:20.237Z,11.73
2018-02-12T22:13:48.585Z,12.40
2018-02-12T22:16:17.879Z,11.90
2018-02-12T22:18:46.298Z,10.60
2018-02-12T22:21:14.626Z,12.40
2018-02-12T22:23:43.054Z,12.45
2018-02-12T22:26:11.385Z,12.23
2018-02-12T22:28:39.733Z,13.90
2018-02-12T22:31:08.088Z,16.80
2018-02-12T22:33:36.457Z,16.13
2018-02-12T22:36:04.833Z,18.12
2018-02-12T22:38:33.181Z,16.40
2018-02-12T22:41:01.596Z,15.00
2018-02-12T22:43:29.942Z,15.50
2018-02-12T22:45:58.286Z,14.77
2018-02-12T22:48:26.665Z,14.80
2018-02-12T22:50:55.098Z,15.90
2018-02-12T22:53:23.473Z,14.40
2018-02-12T22:55:51.806Z,14.47
2018-02-12T22:58:20.229Z,14.77
2018-02-12T23:00:48.565Z,14.00
2018-02-12T23:03:16.985Z,13.83
2018-02-12T23:05:45.465Z,13.00
2018-02-12T23:08:13.794Z,14.40
2018-02-12T23:10:42.222Z,14.73
2018-02-12T23:13:10.571Z,13.40
2018-02-12T23:15:38.889Z,12.37
2018-02-12T23:18:07.233Z,11.98
2018-02-12T23:20:35.564Z,12.50
2018-02-12T23:23:03.902Z,13.68
2018-02-12T23:25:32.229Z,13.10
2018-02-12T23:28:00.648Z,12.85
2018-02-12T23:30:29.029Z,12.13
2018-02-12T23:32:57.404Z,13.43
2018-02-12T23:35:25.729Z,11.57
2018-02-12T23:37:54.074Z,13.65
2018-02-12T23:40:22.397Z,12.75
2018-02-12T23:42:50.816Z,13.98
2018-02-12T23:45:19.189Z,14.85
2018-02-12T23:47:47.569Z,13.15
2018-02-12T23:50:15.949Z,14.27
2018-02-12T23:52:44.325Z,15.05
2018-02-12T23:55:12.702Z,14.15
2018-02-12T23:57:41.034Z,14.10
